Time;durP1;ratioP1;P1;durP2;ratioP2;P2;SDS_P1;SDS_P2;PMS_P1;PMS_P2;Temp;Humidity;BMP_temperature;BMP_pressure;BME280_temperature;BME280_humidity;BME280_pressure;Samples;Min_cycle;Max_cycle;Signal;HPM_P1;HPM_P2
2023/02/05 00:02:28;;;;;;;7.28;4.20;;;;;;;-2.22;100.00;103664.09;7396591;19;20193;-52
2023/02/05 00:04:58;;;;;;;8.10;3.83;;;;;;;-2.10;100.00;103654.75;7399586;19;20138;-55
2023/02/05 00:07:27;;;;;;;6.38;3.85;;;;;;;-2.16;100.00;103648.84;7394745;19;20201;-50
2023/02/05 00:09:57;;;;;;;8.20;3.90;;;;;;;-2.15;100.00;103650.69;7400237;19;20194;-50
2023/02/05 00:12:26;;;;;;;10.57;4.40;;;;;;;-2.23;100.00;103642.03;7394678;19;20190;-55
2023/02/05 00:14:58;;;;;;;9.30;4.60;;;;;;;-2.18;100.00;103640.13;7398566;19;20515;-53
2023/02/05 00:17:28;;;;;;;6.22;3.28;;;;;;;-2.20;100.00;103636.47;7393994;19;20604;-53
2023/02/05 00:19:58;;;;;;;9.90;4.00;;;;;;;-2.20;100.00;103628.88;7399858;19;20524;-51
2023/02/05 00:22:27;;;;;;;7.93;3.80;;;;;;;-2.25;100.00;103620.63;7396176;19;20610;-54
2023/02/05 00:24:56;;;;;;;11.02;4.13;;;;;;;-2.10;100.00;103611.72;7399540;19;20139;-56
2023/02/05 00:27:26;;;;;;;8.77;4.00;;;;;;;-1.88;100.00;103599.53;7394640;19;20198;-52
2023/02/05 00:29:55;;;;;;;9.05;4.63;;;;;;;-1.95;100.00;103590.16;7399798;19;20138;-52
2023/02/05 00:32:27;;;;;;;7.53;3.53;;;;;;;-2.07;100.00;103584.34;7396682;19;20213;-53
2023/02/05 00:34:59;;;;;;;8.90;4.10;;;;;;;-2.07;100.00;103583.41;7399231;19;20218;-51
2023/02/05 00:37:29;;;;;;;8.02;3.92;;;;;;;-2.20;100.00;103573.22;7386793;19;20194;-54
2023/02/05 00:39:58;;;;;;;7.70;3.63;;;;;;;-2.32;100.00;103569.88;7399523;19;20459;-52
2023/02/05 00:42:27;;;;;;;8.63;4.00;;;;;;;-2.20;100.00;103555.50;7395954;19;20197;-50
2023/02/05 00:44:57;;;;;;;7.82;4.30;;;;;;;-2.14;100.00;103566.50;7398882;19;20174;-54
2023/02/05 00:47:29;;;;;;;8.40;4.25;;;;;;;-2.10;100.00;103572.88;7394200;19;20194;-50
2023/02/05 00:49:58;;;;;;;9.40;3.83;;;;;;;-2.13;100.00;103580.97;7399155;19;20138;-50
2023/02/05 00:52:28;;;;;;;10.85;4.15;;;;;;;-2.24;100.00;103579.47;7395944;19;20197;-53
2023/02/05 00:54:57;;;;;;;5.43;3.17;;;;;;;-2.22;100.00;103569.56;7398727;19;20141;-50
2023/02/05 00:57:27;;;;;;;7.00;3.45;;;;;;;-2.21;100.00;103557.13;7391059;19;20201;-51
2023/02/05 00:59:56;;;;;;;6.20;3.30;;;;;;;-2.06;100.00;103540.63;7398633;19;20146;-51
2023/02/05 01:02:28;;;;;;;6.93;3.83;;;;;;;-1.75;100.00;103537.94;7395227;19;20666;-51
2023/02/05 01:04:58;;;;;;;8.13;3.83;;;;;;;-1.70;100.00;103531.88;7398420;19;20195;-51
2023/02/05 01:07:27;;;;;;;8.77;3.50;;;;;;;-1.62;100.00;103528.75;7392853;19;20223;-55
2023/02/05 01:09:57;;;;;;;7.10;3.80;;;;;;;-1.34;100.00;103517.28;7395354;19;20135;-51
2023/02/05 01:12:26;;;;;;;10.98;3.92;;;;;;;-1.25;100.00;103508.38;7391064;19;20190;-50
2023/02/05 01:14:55;;;;;;;6.68;3.83;;;;;;;-1.09;100.00;103495.22;7394334;19;20494;-53
2023/02/05 01:17:25;;;;;;;6.03;3.90;;;;;;;-1.02;100.00;103476.69;7390137;19;20205;-55
2023/02/05 01:19:57;;;;;;;6.93;3.60;;;;;;;-1.08;100.00;103459.00;7394186;19;20139;-51
2023/02/05 01:22:27;;;;;;;10.25;3.60;;;;;;;-1.19;100.00;103454.19;7391432;19;20546;-51
2023/02/05 01:24:56;;;;;;;5.13;3.05;;;;;;;-1.59;100.00;103458.25;7394335;19;20162;-52
2023/02/05 01:27:26;;;;;;;7.70;3.70;;;;;;;-1.30;100.00;103451.13;7390965;19;20395;-52
2023/02/05 01:29:55;;;;;;;5.28;3.08;;;;;;;-1.31;100.00;103449.28;7394747;19;20154;-52
2023/02/05 01:32:24;;;;;;;8.25;3.20;;;;;;;-1.44;100.00;103453.44;7391384;19;20220;-51
2023/02/05 01:34:56;;;;;;;6.95;3.42;;;;;;;-1.14;100.00;103455.66;7393814;19;20131;-51
2023/02/05 01:37:26;;;;;;;6.07;3.03;;;;;;;-0.92;100.00;103438.25;7389424;19;20568;-52
2023/02/05 01:39:56;;;;;;;6.05;2.85;;;;;;;-1.07;100.00;103439.66;7394566;19;20139;-51
2023/02/05 01:42:27;;;;;;;4.00;2.60;;;;;;;-1.40;100.00;103443.00;7391798;19;21179;-53
2023/02/05 01:45:35;;;;;;;7.85;3.50;;;;;;;-1.31;100.00;103450.91;7394604;19;20135;-51
2023/02/05 01:48:06;;;;;;;4.15;2.50;;;;;;;-1.29;100.00;103458.00;7391539;19;20224;-51
2023/02/05 01:50:42;;;;;;;5.60;2.75;;;;;;;-1.42;100.00;103464.69;7391426;19;20135;-50
2023/02/05 01:53:15;;;;;;;5.82;2.67;;;;;;;-1.34;100.00;103459.00;7394979;19;20774;-54
2023/02/05 01:55:55;;;;;;;4.68;2.60;;;;;;;-1.06;100.00;103472.81;7389881;19;20222;-54
2023/02/05 01:58:26;;;;;;;4.50;2.50;;;;;;;-1.38;100.00;103466.94;7393386;19;20185;-52
2023/02/05 02:00:55;;;;;;;6.60;2.60;;;;;;;-1.31;100.00;103464.50;7390658;19;20569;-52
2023/02/05 02:03:26;;;;;;;3.20;2.20;;;;;;;-1.38;100.00;103461.84;7393623;19;20499;-52
2023/02/05 02:05:59;;;;;;;4.70;2.30;;;;;;;-1.34;100.00;103469.13;7387855;19;20198;-52
2023/02/05 02:08:30;;;;;;;5.88;2.53;;;;;;;-1.39;100.00;103475.25;7391186;19;20182;-52
2023/02/05 02:11:00;;;;;;;6.65;2.05;;;;;;;-1.41;100.00;103484.22;7389503;19;20198;-51
2023/02/05 02:13:30;;;;;;;4.60;2.13;;;;;;;-1.36;100.00;103489.22;7394797;19;20519;-50
2023/02/05 02:16:00;;;;;;;4.93;2.88;;;;;;;-1.23;100.00;103501.00;7390561;19;20190;-51
2023/02/05 02:18:29;;;;;;;3.83;2.28;;;;;;;-1.12;100.00;103497.34;7392773;19;20171;-51
2023/02/05 02:21:30;;;;;;;8.88;4.32;;;;;;;-1.36;100.00;103511.09;7390655;19;20190;-53
2023/02/05 02:24:53;;;;;;;3.90;2.42;;;;;;;-1.01;100.00;103517.44;7393588;19;20131;-52
2023/02/05 02:27:44;;;;;;;5.50;2.85;;;;;;;-1.40;100.00;103521.50;7385669;19;20575;-53
2023/02/05 02:30:22;;;;;;;3.75;2.15;;;;;;;-1.39;100.00;103510.69;7396291;19;20213;-51
2023/02/05 02:32:58;;;;;;;5.25;2.42;;;;;;;-1.28;100.00;103520.63;7395110;19;20203;-51
2023/02/05 02:35:31;;;;;;;3.92;2.10;;;;;;;-0.99;100.00;103510.94;7388862;19;20508;-51
2023/02/05 02:38:08;;;;;;;5.68;1.80;;;;;;;-1.06;100.00;103513.38;7394002;19;20638;-50
2023/02/05 02:40:40;;;;;;;6.45;2.20;;;;;;;-1.28;100.00;103515.56;7392277;19;20154;-52
2023/02/05 02:43:15;;;;;;;5.88;2.45;;;;;;;-1.15;100.00;103514.66;7395982;19;20154;-49
2023/02/05 02:45:48;;;;;;;3.55;1.98;;;;;;;-1.23;100.00;103519.63;7390770;19;20567;-50
2023/02/05 02:48:18;;;;;;;3.95;1.90;;;;;;;-1.19;100.00;103528.56;7394281;19;20171;-49
2023/02/05 02:50:51;;;;;;;5.07;1.90;;;;;;;-1.28;100.00;103525.69;7390836;19;20567;-54
2023/02/05 02:53:22;;;;;;;3.53;1.95;;;;;;;-1.24;100.00;103524.47;7395979;19;20138;-50
2023/02/05 02:55:52;;;;;;;4.13;2.10;;;;;;;-1.50;100.00;103538.03;7390638;19;20758;-52
2023/02/05 02:58:27;;;;;;;3.80;2.33;;;;;;;-1.31;100.00;103535.44;7394179;19;20198;-51
2023/02/05 03:00:56;;;;;;;9.98;2.75;;;;;;;-1.16;100.00;103533.13;7390556;19;20197;-51
2023/02/05 03:03:27;;;;;;;5.07;2.17;;;;;;;-0.68;100.00;103515.00;7394115;19;20501;-49
2023/02/05 03:05:59;;;;;;;4.70;2.40;;;;;;;-0.76;100.00;103519.78;7390245;19;20991;-49
2023/02/05 03:08:31;;;;;;;5.22;2.40;;;;;;;-0.85;100.00;103529.59;7392699;19;20174;-52
2023/02/05 03:11:03;;;;;;;4.85;2.40;;;;;;;-1.22;100.00;103536.66;7391887;19;20186;-50
2023/02/05 03:13:36;;;;;;;4.97;2.40;;;;;;;-1.43;100.00;103529.59;7394149;19;20167;-49
2023/02/05 03:16:07;;;;;;;4.43;2.22;;;;;;;-1.28;100.00;103520.63;7389850;19;20194;-52
2023/02/05 03:18:36;;;;;;;7.20;3.10;;;;;;;-1.13;100.00;103513.28;7392344;19;20170;-53
2023/02/05 03:21:11;;;;;;;4.30;2.70;;;;;;;-1.04;100.00;103506.88;7388646;19;20201;-49
2023/02/05 03:23:41;;;;;;;5.15;2.63;;;;;;;-1.21;100.00;103499.56;7393847;19;20138;-49
2023/02/05 03:26:24;;;;;;;4.40;2.50;;;;;;;-1.26;100.00;103509.09;7390174;19;20582;-52
2023/02/05 03:28:57;;;;;;;7.40;2.45;;;;;;;-1.32;100.00;103508.28;7391614;19;20170;-49
2023/02/05 03:31:32;;;;;;;7.70;2.78;;;;;;;-1.08;100.00;103494.50;7388881;19;20190;-51
2023/02/05 03:34:09;;;;;;;4.53;2.47;;;;;;;-0.87;100.00;103491.34;7394013;19;20139;-51
2023/02/05 03:36:47;;;;;;;3.33;2.38;;;;;;;-0.84;100.00;103478.19;7386531;19;20200;-49
2023/02/05 03:39:26;;;;;;;7.28;3.33;;;;;;;-0.96;100.00;103470.78;7394686;19;20141;-50
2023/02/05 03:42:03;;;;;;;4.38;2.00;;;;;;;-0.84;100.00;103453.75;7390231;19;20186;-49
2023/02/05 03:44:55;;;;;;;3.88;2.60;;;;;;;-0.88;100.00;103461.66;7393077;19;20134;-49
2023/02/05 03:47:34;;;;;;;5.20;2.83;;;;;;;-1.01;100.00;103456.59;7388837;19;20213;-53
2023/02/05 03:50:13;;;;;;;3.60;2.50;;;;;;;-0.83;100.00;103457.19;7394345;19;20158;-50
2023/02/05 03:52:47;;;;;;;5.75;2.30;;;;;;;-0.97;100.00;103461.34;7390242;19;20880;-50
2023/02/05 03:55:20;;;;;;;4.63;2.40;;;;;;;-0.81;100.00;103450.72;7393842;19;20139;-50
2023/02/05 03:57:53;;;;;;;5.85;2.50;;;;;;;-0.63;100.00;103436.97;7391444;19;20198;-50
2023/02/05 04:00:26;;;;;;;5.63;3.17;;;;;;;-0.80;100.00;103437.31;7391779;19;20146;-50
2023/02/05 04:02:56;;;;;;;6.70;2.90;;;;;;;-0.77;100.00;103435.16;7392509;19;20168;-51
2023/02/05 04:05:25;;;;;;;4.53;2.53;;;;;;;-0.96;100.00;103454.69;7389320;19;20142;-50
2023/02/05 04:07:55;;;;;;;4.45;2.20;;;;;;;-0.94;100.00;103452.34;7391214;19;20179;-51
2023/02/05 04:10:24;;;;;;;5.15;2.90;;;;;;;-0.48;100.00;103450.75;7391646;19;20148;-50
2023/02/05 04:12:54;;;;;;;4.22;2.65;;;;;;;-0.66;100.00;103440.75;7392289;19;20139;-52
2023/02/05 04:15:26;;;;;;;7.40;2.97;;;;;;;-0.78;100.00;103448.56;7390825;19;20150;-54
2023/02/05 04:17:56;;;;;;;7.80;2.50;;;;;;;-0.76;100.00;103446.22;7391336;19;20175;-50
2023/02/05 04:20:26;;;;;;;3.67;2.50;;;;;;;-0.99;100.00;103457.72;7389122;19;20615;-50
2023/02/05 04:22:55;;;;;;;5.03;2.50;;;;;;;-0.97;100.00;103448.69;7392208;19;20240;-50
2023/02/05 04:25:25;;;;;;;4.13;2.50;;;;;;;-0.77;100.00;103445.31;7390629;19;20131;-50
2023/02/05 04:27:55;;;;;;;7.95;3.20;;;;;;;-0.89;100.00;103449.69;7390927;19;20178;-49
2023/02/05 04:30:27;;;;;;;7.68;2.70;;;;;;;-0.85;100.00;103436.72;7390967;19;20137;-50
2023/02/05 04:32:57;;;;;;;4.57;2.55;;;;;;;-0.88;100.00;103427.81;7397478;19;20139;-51
2023/02/05 04:35:27;;;;;;;5.10;2.60;;;;;;;-0.75;100.00;103423.63;7392189;19;20674;-51
2023/02/05 04:37:56;;;;;;;3.65;2.53;;;;;;;-0.68;100.00;103416.09;7397600;19;20174;-53
2023/02/05 04:40:25;;;;;;;7.00;2.42;;;;;;;-0.96;100.00;103419.19;7395974;19;20142;-53
2023/02/05 04:42:55;;;;;;;8.82;3.15;;;;;;;-1.02;100.00;103419.28;7398662;19;20135;-49
2023/02/05 04:45:27;;;;;;;5.22;2.50;;;;;;;-0.97;100.00;103405.59;7397443;19;20532;-52
2023/02/05 04:48:00;;;;;;;6.30;2.67;;;;;;;-0.98;100.00;103395.22;7397465;19;20718;-50
2023/02/05 04:50:29;;;;;;;6.30;3.03;;;;;;;-0.99;100.00;103399.41;7395617;19;20131;-50
2023/02/05 04:53:00;;;;;;;9.60;2.80;;;;;;;-0.61;100.00;103386.44;7398561;19;20135;-49
2023/02/05 04:55:30;;;;;;;5.07;2.50;;;;;;;-0.86;100.00;103401.03;7394445;19;20172;-50
2023/02/05 04:58:01;;;;;;;4.82;2.55;;;;;;;-0.79;100.00;103402.72;7396853;19;20181;-51
2023/02/05 05:00:31;;;;;;;5.20;2.70;;;;;;;-0.91;100.00;103399.50;7395701;19;20134;-49
2023/02/05 05:03:03;;;;;;;4.22;2.47;;;;;;;-0.79;100.00;103401.09;7397984;19;20171;-50
2023/02/05 05:05:33;;;;;;;6.53;2.60;;;;;;;-0.61;100.00;103397.50;7395018;19;20146;-50
2023/02/05 05:08:03;;;;;;;5.45;2.85;;;;;;;-0.84;100.00;103394.50;7397289;19;20527;-51
2023/02/05 05:10:32;;;;;;;5.57;2.50;;;;;;;-0.61;100.00;103391.53;7395120;19;20146;-51
2023/02/05 05:13:02;;;;;;;5.85;3.08;;;;;;;-1.03;100.00;103397.19;7398053;19;20175;-49
2023/02/05 05:15:31;;;;;;;4.53;2.75;;;;;;;-0.98;100.00;103396.16;7394212;19;20138;-50
2023/02/05 05:18:04;;;;;;;6.22;2.63;;;;;;;-0.86;100.00;103391.78;7396980;19;20177;-50
2023/02/05 05:20:33;;;;;;;5.07;2.80;;;;;;;-0.79;100.00;103388.41;7395456;19;20135;-49
2023/02/05 05:23:03;;;;;;;6.57;2.95;;;;;;;-0.86;100.00;103391.78;7398169;19;20163;-52
2023/02/05 05:25:32;;;;;;;5.88;2.85;;;;;;;-0.66;100.00;103379.88;7394308;19;20780;-51
2023/02/05 05:28:02;;;;;;;4.53;2.75;;;;;;;-0.50;100.00;103368.47;7396121;19;20204;-50
2023/02/05 05:30:31;;;;;;;6.22;2.70;;;;;;;-0.65;100.00;103366.47;7394495;19;20198;-50
2023/02/05 05:33:03;;;;;;;6.50;3.13;;;;;;;-0.80;100.00;103368.84;7397269;19;20146;-50
2023/02/05 05:35:33;;;;;;;4.88;2.85;;;;;;;-0.91;100.00;103386.81;7391674;19;20321;-50
2023/02/05 05:38:03;;;;;;;4.65;2.83;;;;;;;-0.71;100.00;103381.81;7396170;19;20179;-50
2023/02/05 05:45:58;;;;;;;5.25;2.72;;;;;;;-0.60;100.00;103370.53;7392958;19;20193;-50
2023/02/05 05:48:30;;;;;;;6.47;2.88;;;;;;;-0.46;100.00;103365.59;7395050;19;20530;-50
2023/02/05 05:51:00;;;;;;;6.68;3.05;;;;;;;0.58;100.00;103344.63;7393602;19;20190;-51
2023/02/05 05:53:29;;;;;;;23.70;11.48;;;;;;;0.83;100.00;103334.03;7396609;19;20143;-50
2023/02/05 05:55:59;;;;;;;62.78;27.92;;;;;;;1.43;100.00;103327.69;7392632;19;20640;-52
2023/02/05 05:58:28;;;;;;;41.38;18.27;;;;;;;1.94;100.00;103331.16;7394546;19;20162;-50
2023/02/05 06:00:58;;;;;;;16.20;7.93;;;;;;;1.37;100.00;103343.09;7393043;19;20194;-50
2023/02/05 06:03:27;;;;;;;14.00;6.93;;;;;;;0.92;100.00;103355.50;7396195;19;20139;-52
2023/02/05 06:06:02;;;;;;;8.73;4.23;;;;;;;1.48;100.00;103341.84;7391449;19;20398;-51
2023/02/05 06:08:31;;;;;;;7.90;4.03;;;;;;;1.35;100.00;103348.00;7394314;19;20440;-51
2023/02/05 06:11:01;;;;;;;8.33;4.10;;;;;;;1.78;100.00;103335.16;7392104;19;20430;-51
2023/02/05 06:13:30;;;;;;;5.27;2.90;;;;;;;1.60;100.00;103344.97;7396068;19;20752;-51
2023/02/05 06:16:00;;;;;;;6.60;3.20;;;;;;;1.52;100.00;103351.66;7391739;19;20436;-51
2023/02/05 06:18:29;;;;;;;4.00;2.50;;;;;;;2.00;100.00;103349.69;7393983;19;20422;-51
2023/02/05 06:21:02;;;;;;;5.70;2.90;;;;;;;0.55;100.00;103382.34;7392356;19;20446;-50
2023/02/05 06:23:31;;;;;;;8.93;2.57;;;;;;;-0.26;100.00;103384.97;7395775;19;20407;-50
2023/02/05 06:26:01;;;;;;;4.45;2.75;;;;;;;-0.70;100.00;103401.38;7391300;19;20442;-54
2023/02/05 06:28:30;;;;;;;5.18;2.63;;;;;;;-1.03;100.00;103404.78;7393777;19;20642;-50
2023/02/05 06:31:00;;;;;;;4.68;2.40;;;;;;;-1.10;100.00;103405.63;7391800;19;20197;-50
2023/02/05 06:33:29;;;;;;;8.02;2.88;;;;;;;-1.05;100.00;103406.22;7395302;19;20624;-52
2023/02/05 06:36:01;;;;;;;7.85;2.90;;;;;;;-0.97;100.00;103400.50;7389400;19;20194;-50
2023/02/05 06:38:31;;;;;;;5.10;2.90;;;;;;;-1.24;100.00;103408.84;7393804;19;20167;-51
2023/02/05 06:41:00;;;;;;;7.53;2.97;;;;;;;-1.19;100.00;103403.50;7391690;19;20194;-50
2023/02/05 06:43:29;;;;;;;5.18;2.70;;;;;;;-1.12;100.00;103401.06;7394691;19;20139;-50
2023/02/05 06:45:59;;;;;;;6.13;2.70;;;;;;;-1.17;100.00;103397.94;7391088;19;20217;-51
2023/02/05 06:48:28;;;;;;;4.15;2.50;;;;;;;-1.13;100.00;103394.16;7393539;19;20198;-50
2023/02/05 06:51:00;;;;;;;5.22;2.67;;;;;;;-0.96;100.00;103389.66;7391607;19;20194;-53
2023/02/05 06:53:30;;;;;;;6.18;2.95;;;;;;;-1.02;100.00;103393.94;7394624;19;20131;-50
2023/02/05 06:55:59;;;;;;;6.18;2.63;;;;;;;-1.11;100.00;103395.28;7388323;19;20654;-50
2023/02/05 06:58:29;;;;;;;6.22;2.85;;;;;;;-1.19;100.00;103391.72;7394657;19;20166;-52
2023/02/05 07:00:58;;;;;;;6.20;2.75;;;;;;;-1.29;100.00;103383.63;7390357;19;20218;-50
2023/02/05 07:03:28;;;;;;;7.63;3.55;;;;;;;-1.09;100.00;103386.22;7393976;19;20149;-54
2023/02/05 07:05:57;;;;;;;8.05;2.92;;;;;;;-1.20;100.00;103383.91;7382020;19;20673;-52
2023/02/05 07:08:29;;;;;;;5.90;3.22;;;;;;;-1.33;100.00;103374.72;7392376;19;20653;-56
2023/02/05 07:10:59;;;;;;;7.05;3.45;;;;;;;-1.39;100.00;103371.38;7390676;19;20194;-50
2023/02/05 07:13:28;;;;;;;8.02;3.30;;;;;;;-1.46;100.00;103368.72;7393845;19;20135;-53
2023/02/05 07:15:58;;;;;;;5.05;2.72;;;;;;;-1.41;100.00;103370.25;7389995;19;20201;-50
2023/02/05 07:18:27;;;;;;;6.63;3.28;;;;;;;-1.62;100.00;103369.22;7393746;19;20170;-51
2023/02/05 07:20:57;;;;;;;7.40;3.15;;;;;;;-1.65;100.00;103368.81;7390047;19;20201;-50
2023/02/05 07:23:29;;;;;;;6.18;3.45;;;;;;;-1.58;100.00;103361.34;7393642;19;20167;-52
2023/02/05 07:25:58;;;;;;;7.50;3.15;;;;;;;-1.48;100.00;103353.34;7389555;19;20198;-52
2023/02/05 07:28:28;;;;;;;5.40;3.03;;;;;;;-1.48;100.00;103353.34;7392012;19;20191;-51
2023/02/05 07:30:57;;;;;;;9.20;3.53;;;;;;;-1.44;100.00;103355.53;7390318;19;20194;-50
2023/02/05 07:33:28;;;;;;;8.80;3.20;;;;;;;-1.51;100.00;103358.91;7393457;19;20134;-50
2023/02/05 07:35:57;;;;;;;6.38;2.92;;;;;;;-1.50;100.00;103365.78;7387821;19;20210;-50
2023/02/05 07:38:29;;;;;;;7.60;3.80;;;;;;;-1.67;100.00;103361.03;7391684;19;20202;-53
2023/02/05 07:40:59;;;;;;;10.13;3.70;;;;;;;-1.56;100.00;103359.00;7390161;19;20576;-51
2023/02/05 07:43:28;;;;;;;4.93;2.90;;;;;;;-1.60;100.00;103364.38;7393456;19;20164;-51
2023/02/05 07:45:59;;;;;;;5.90;3.13;;;;;;;-1.59;100.00;103369.63;7389596;19;20198;-50
2023/02/05 07:48:29;;;;;;;5.43;3.03;;;;;;;-1.50;100.00;103364.88;7393004;19;20174;-54
2023/02/05 07:50:58;;;;;;;8.80;3.22;;;;;;;-1.41;100.00;103360.09;7390441;19;20194;-56
2023/02/05 07:53:30;;;;;;;9.38;3.63;;;;;;;-1.28;100.00;103358.47;7393239;19;20134;-52
2023/02/05 07:56:03;;;;;;;8.05;3.40;;;;;;;-1.43;100.00;103359.00;7389435;19;20186;-56
2023/02/05 07:58:33;;;;;;;6.80;3.55;;;;;;;-1.33;100.00;103354.44;7391909;19;20167;-55
2023/02/05 08:01:03;;;;;;;8.27;3.78;;;;;;;-1.24;100.00;103345.50;7389671;19;20570;-53
2023/02/05 08:03:33;;;;;;;6.85;3.25;;;;;;;-1.22;100.00;103344.09;7393614;19;20134;-56
2023/02/05 08:06:05;;;;;;;7.45;3.85;;;;;;;-1.23;100.00;103346.44;7388421;19;20194;-53
2023/02/05 08:08:37;;;;;;;8.93;3.67;;;;;;;0.00;100.00;103318.88;7398440;19;20185;-56
2023/02/05 08:11:08;;;;;;;19.95;9.98;;;;;;;0.44;100.00;103301.34;7394330;19;20222;-55
2023/02/05 08:13:37;;;;;;;39.80;15.80;;;;;;;1.08;100.00;103284.56;7400297;19;20143;-56
2023/02/05 08:16:07;;;;;;;75.10;34.13;;;;;;;0.88;100.00;103295.72;7396211;19;20203;-56
2023/02/05 08:18:37;;;;;;;29.10;13.93;;;;;;;0.83;100.00;103313.69;7397901;19;20885;-57
2023/02/05 08:21:07;;;;;;;32.77;16.20;;;;;;;0.74;100.00;103328.72;7395875;19;20194;-55
2023/02/05 08:23:39;;;;;;;10.43;4.00;;;;;;;0.45;100.00;103336.22;7399632;19;20394;-55
2023/02/05 08:26:08;;;;;;;21.98;8.75;;;;;;;0.43;100.00;103342.72;7395894;19;21058;-56
2023/02/05 08:28:37;;;;;;;11.90;4.83;;;;;;;1.08;100.00;103337.94;7397494;19;20170;-57
2023/02/05 08:31:11;;;;;;;6.10;3.50;;;;;;;0.56;100.00;103366.38;7394394;19;20983;-56
2023/02/05 08:33:41;;;;;;;10.23;3.90;;;;;;;0.58;100.00;103375.13;7399975;19;21223;-56
2023/02/05 08:36:11;;;;;;;8.17;3.77;;;;;;;0.50;100.00;103378.31;7390886;19;20423;-56
2023/02/05 08:38:43;;;;;;;9.00;4.80;;;;;;;0.61;100.00;103379.69;7397308;19;20451;-56
2023/02/05 08:41:13;;;;;;;10.17;5.23;;;;;;;0.76;100.00;103385.72;7396848;19;20407;-56
2023/02/05 08:43:44;;;;;;;9.10;3.67;;;;;;;0.79;100.00;103388.66;7399753;19;20400;-56
2023/02/05 08:46:16;;;;;;;7.47;3.93;;;;;;;0.71;100.00;103397.88;7396010;19;20411;-56
2023/02/05 08:48:46;;;;;;;8.00;4.43;;;;;;;0.48;100.00;103410.25;7397133;19;20487;-55
2023/02/05 08:51:16;;;;;;;9.20;3.73;;;;;;;0.61;100.00;103406.00;7394220;19;20405;-56
2023/02/05 08:53:48;;;;;;;7.03;3.63;;;;;;;0.43;100.00;103408.78;7399418;19;20794;-56
2023/02/05 08:56:17;;;;;;;5.97;3.40;;;;;;;0.35;100.00;103431.59;7395954;19;20443;-56
2023/02/05 08:58:48;;;;;;;5.63;3.20;;;;;;;0.24;100.00;103435.31;7396512;19;20435;-53
2023/02/05 09:01:18;;;;;;;5.80;3.23;;;;;;;0.16;100.00;103432.53;7394749;19;20468;-57
2023/02/05 09:03:48;;;;;;;6.20;3.60;;;;;;;0.34;100.00;103429.75;7398917;19;20487;-56
2023/02/05 09:06:17;;;;;;;6.40;3.23;;;;;;;0.40;100.00;103440.69;7393953;19;20438;-55
2023/02/05 09:08:49;;;;;;;8.37;3.10;;;;;;;0.37;100.00;103447.91;7395829;19;20427;-54
2023/02/05 09:11:22;;;;;;;7.60;3.87;;;;;;;0.30;100.00;103446.97;7393142;19;20422;-54
2023/02/05 09:13:51;;;;;;;6.23;3.10;;;;;;;0.37;100.00;103447.03;7393442;19;20403;-53
2023/02/05 09:16:21;;;;;;;5.32;3.33;;;;;;;0.38;100.00;103461.53;7394545;19;20431;-56
2023/02/05 09:18:51;;;;;;;5.90;3.45;;;;;;;0.69;100.00;103451.78;7394335;19;20229;-56
2023/02/05 09:21:20;;;;;;;9.82;3.72;;;;;;;0.52;100.00;103453.13;7389663;19;20194;-51
2023/02/05 09:23:52;;;;;;;7.00;3.93;;;;;;;0.41;100.00;103449.22;7397178;19;20137;-53
2023/02/05 09:26:22;;;;;;;10.85;4.20;;;;;;;0.46;100.00;103444.75;7394470;19;20436;-52
2023/02/05 09:28:52;;;;;;;8.70;4.10;;;;;;;0.72;100.00;103442.00;7395384;19;20183;-55
2023/02/05 09:31:22;;;;;;;8.63;3.60;;;;;;;0.45;100.00;103442.91;7393422;19;20448;-52
2023/02/05 09:33:51;;;;;;;7.95;3.90;;;;;;;0.32;100.00;103446.44;7397795;19;20396;-55
2023/02/05 09:36:23;;;;;;;9.97;4.57;;;;;;;0.23;100.00;103453.81;7389821;19;20695;-51
2023/02/05 09:38:55;;;;;;;9.67;4.13;;;;;;;0.12;100.00;103457.50;7395306;19;20486;-55
2023/02/05 09:41:48;;;;;;;6.80;3.80;;;;;;;0.19;100.00;103449.06;7392503;19;20426;-54
2023/02/05 09:44:23;;;;;;;6.30;3.40;;;;;;;0.17;100.00;103444.50;7398281;19;20402;-52
2023/02/05 09:46:57;;;;;;;7.03;3.53;;;;;;;0.01;100.00;103447.63;7391979;19;20213;-53
2023/02/05 09:49:30;;;;;;;8.82;4.93;;;;;;;-0.01;100.00;103459.19;7396602;19;20441;-56
2023/02/05 09:52:02;;;;;;;14.63;6.88;;;;;;;0.00;100.00;103450.91;7392473;19;20213;-52
2023/02/05 09:54:37;;;;;;;15.37;5.47;;;;;;;-0.04;100.00;103448.66;7396574;19;20145;-52
2023/02/05 09:57:09;;;;;;;10.35;3.70;;;;;;;0.06;100.00;103446.56;7391937;19;21127;-50
2023/02/05 09:59:39;;;;;;;14.10;6.07;;;;;;;-0.10;100.00;103447.88;7396741;19;20138;-55
2023/02/05 10:02:20;;;;;;;10.10;5.10;;;;;;;-0.05;100.00;103446.84;7393219;19;20658;-56
2023/02/05 10:04:53;;;;;;;9.95;3.97;;;;;;;0.09;100.00;103448.59;7396533;19;20607;-51
2023/02/05 10:07:37;;;;;;;7.65;3.80;;;;;;;0.01;100.00;103447.63;7388996;19;20582;-50
2023/02/05 10:10:21;;;;;;;6.30;3.95;;;;;;;0.00;100.00;103450.91;7394650;19;20144;-53
2023/02/05 10:13:23;;;;;;;8.85;4.30;;;;;;;0.15;100.00;103441.75;7395882;19;20174;-53
2023/02/05 10:16:05;;;;;;;8.65;4.00;;;;;;;0.06;100.00;103446.56;7391573;19;20189;-54
2023/02/05 10:18:45;;;;;;;10.05;4.50;;;;;;;0.10;100.00;103443.72;7394389;19;20171;-52
2023/02/05 10:21:28;;;;;;;14.07;4.28;;;;;;;0.32;100.00;103448.06;7389169;19;20194;-54
2023/02/05 10:24:14;;;;;;;8.20;4.20;;;;;;;0.35;100.00;103434.13;7395981;19;20162;-53
2023/02/05 10:26:51;;;;;;;9.10;3.97;;;;;;;0.35;100.00;103430.66;7391131;19;20439;-54
2023/02/05 10:29:27;;;;;;;11.48;4.20;;;;;;;0.24;100.00;103437.84;7395857;19;20174;-56
2023/02/05 10:32:07;;;;;;;7.90;3.97;;;;;;;0.12;100.00;103437.19;7391353;19;20539;-55
2023/02/05 10:34:49;;;;;;;10.67;4.23;;;;;;;0.24;100.00;103442.94;7394560;19;20393;-56
2023/02/05 10:37:20;;;;;;;7.87;3.53;;;;;;;0.09;100.00;103448.59;7390087;19;20857;-55
2023/02/05 10:39:50;;;;;;;8.53;3.47;;;;;;;-0.15;100.00;103465.94;7395457;19;20407;-55
2023/02/05 10:42:29;;;;;;;6.13;3.63;;;;;;;0.06;100.00;103459.25;7390270;19;20439;-53
2023/02/05 10:45:05;;;;;;;6.63;4.03;;;;;;;0.32;100.00;103464.22;7395100;19;20138;-54
2023/02/05 10:47:59;;;;;;;7.30;4.00;;;;;;;0.56;100.00;103465.47;7390918;19;20446;-55
2023/02/05 10:50:32;;;;;;;8.50;4.23;;;;;;;0.55;100.00;103466.22;7391321;19;20937;-54
2023/02/05 10:53:02;;;;;;;6.73;4.00;;;;;;;0.46;100.00;103471.03;7394039;19;20399;-54
2023/02/05 10:55:31;;;;;;;11.95;4.55;;;;;;;0.39;100.00;103477.00;7390654;19;20432;-53
2023/02/05 10:58:14;;;;;;;5.83;4.10;;;;;;;0.42;100.00;103485.72;7393657;19;20182;-52
2023/02/05 11:00:43;;;;;;;7.30;4.40;;;;;;;0.45;100.00;103492.09;7390991;19;20407;-53
2023/02/05 11:03:18;;;;;;;8.17;5.10;;;;;;;0.48;100.00;103489.03;7395349;19;20402;-53
2023/02/05 11:05:47;;;;;;;7.30;3.83;;;;;;;0.46;100.00;103493.00;7386191;19;20406;-55
2023/02/05 11:08:33;;;;;;;8.37;4.90;;;;;;;0.46;100.00;103488.81;7393838;19;20464;-54
2023/02/05 11:11:04;;;;;;;8.10;4.40;;;;;;;0.48;100.00;103497.56;7389900;19;20458;-53
2023/02/05 11:13:38;;;;;;;8.03;3.77;;;;;;;0.47;100.00;103487.22;7394024;19;20855;-52
2023/02/05 11:16:09;;;;;;;45.80;16.23;;;;;;;2.46;100.00;103441.56;7389842;19;20430;-55
2023/02/05 11:18:42;;;;;;;20.40;7.60;;;;;;;3.54;100.00;103393.47;7391988;19;20782;-55
2023/02/05 11:21:12;;;;;;;116.33;49.63;;;;;;;3.13;100.00;103427.19;7388467;19;20447;-54
2023/02/05 11:23:42;;;;;;;59.47;29.47;;;;;;;3.15;100.00;103443.59;7394325;19;20790;-52
2023/02/05 11:26:19;;;;;;;9.73;5.17;;;;;;;1.88;100.00;103480.66;7389567;19;20423;-54
2023/02/05 11:28:51;;;;;;;21.20;9.50;;;;;;;1.74;100.00;103477.34;7391601;19;20435;-53
2023/02/05 11:31:24;;;;;;;38.43;17.00;;;;;;;2.03;100.00;103471.41;7390009;19;21145;-54
2023/02/05 11:34:11;;;;;;;8.40;3.90;;;;;;;1.66;100.00;103498.44;7393590;19;20402;-54
2023/02/05 11:36:51;;;;;;;11.00;4.70;;;;;;;1.41;100.00;103522.50;7381516;19;20467;-52
2023/02/05 11:39:30;;;;;;;6.30;3.67;;;;;;;1.45;100.00;103512.88;7393992;19;20410;-54
2023/02/05 11:42:01;;;;;;;9.70;3.93;;;;;;;1.37;100.00;103508.47;7388419;19;20435;-56
2023/02/05 11:44:34;;;;;;;8.20;4.00;;;;;;;1.19;100.00;103513.09;7392778;19;20431;-55
2023/02/05 11:47:04;;;;;;;9.17;4.20;;;;;;;1.24;100.00;103530.59;7388708;19;20451;-51
2023/02/05 11:49:35;;;;;;;8.57;4.00;;;;;;;1.17;100.00;103528.91;7393141;19;21095;-53